Vernon, Canada
Current Conditions -  °F | °C
As of 4:00 AM on Monday 26 Jan 2015 (Local Time) from CYLW Reporting Station
Overcast Overcast  
Wind Chill: 34°   Ceiling: 300
Heat Index: 34°   Visibility: 9mi
Dew Point: 34°   Wind: 3mph
Humidity: 100%   Direction: 210°SSW
Pressure: 30.11"   Gusts: NA
Location:  50.27°N, 119.27°W
Report Text: CYLW 261200Z AUTO 21003KT 9SM OVC003 01/01 A3011 RMK SLP210
Loading
Personal Weather Stations






























Interactive Weather Map New forecast layout! Learn more

10-Day Weather Forecast

Advertisements
Track Severe Weather on mobile